sensor_id;sensor_type;location;lat;lon;timestamp;pressure;altitude;pressure_sealevel;temperature;humidity
57086;BME280;42964;42.910;23.792;2024-03-02T00:01:03;97162.59;;;8.00;93.87
57086;BME280;42964;42.910;23.792;2024-03-02T00:06:03;97158.28;;;8.02;93.94
57086;BME280;42964;42.910;23.792;2024-03-02T00:11:02;97134.16;;;7.75;93.89
57086;BME280;42964;42.910;23.792;2024-03-02T00:16:01;96990.38;;;6.59;95.09
57086;BME280;42964;42.910;23.792;2024-03-02T00:21:05;97138.41;;;7.32;95.55
57086;BME280;42964;42.910;23.792;2024-03-02T00:26:05;97172.88;;;7.49;96.43
57086;BME280;42964;42.910;23.792;2024-03-02T00:31:06;97147.00;;;7.31;95.98
57086;BME280;42964;42.910;23.792;2024-03-02T00:36:07;97160.78;;;7.37;96.59
57086;BME280;42964;42.910;23.792;2024-03-02T00:41:07;97172.91;;;7.55;96.30
57086;BME280;42964;42.910;23.792;2024-03-02T00:46:06;97141.84;;;7.34;96.66
57086;BME280;42964;42.910;23.792;2024-03-02T00:51:05;97160.84;;;7.51;96.67
57086;BME280;42964;42.910;23.792;2024-03-02T00:56:09;96975.72;;;6.46;96.44
57086;BME280;42964;42.910;23.792;2024-03-02T01:01:08;96950.78;;;6.37;96.09
57086;BME280;42964;42.910;23.792;2024-03-02T01:06:08;97153.94;;;7.56;96.21
57086;BME280;42964;42.910;23.792;2024-03-02T01:11:08;97111.75;;;7.31;96.71
57086;BME280;42964;42.910;23.792;2024-03-02T01:16:07;97147.06;;;7.43;97.42
57086;BME280;42964;42.910;23.792;2024-03-02T01:21:06;97136.72;;;7.40;97.06
57086;BME280;42964;42.910;23.792;2024-03-02T01:26:04;97110.88;;;7.38;97.51
57086;BME280;42964;42.910;23.792;2024-03-02T01:31:04;97102.25;;;7.19;97.48
57086;BME280;42964;42.910;23.792;2024-03-02T01:36:03;97130.66;;;7.39;97.22
57086;BME280;42964;42.910;23.792;2024-03-02T01:41:03;97109.16;;;7.31;97.13
57086;BME280;42964;42.910;23.792;2024-03-02T01:46:01;97124.69;;;7.51;96.52
57086;BME280;42964;42.910;23.792;2024-03-02T01:51:00;97096.28;;;7.50;96.10
57086;BME280;42964;42.910;23.792;2024-03-02T01:56:00;97133.31;;;7.69;95.92
57086;BME280;42964;42.910;23.792;2024-03-02T02:01:00;97119.53;;;7.79;95.96
57086;BME280;42964;42.910;23.792;2024-03-02T02:05:59;97095.44;;;7.64;94.99
57086;BME280;42964;42.910;23.792;2024-03-02T02:10:58;97123.84;;;7.81;94.32
57086;BME280;42964;42.910;23.792;2024-03-02T02:16:07;97094.56;;;7.58;94.39
57086;BME280;42964;42.910;23.792;2024-03-02T02:21:06;97060.97;;;7.29;94.03
57086;BME280;42964;42.910;23.792;2024-03-02T02:26:05;97109.19;;;7.63;93.77
57086;BME280;42964;42.910;23.792;2024-03-02T02:31:04;97105.75;;;7.77;94.48
57086;BME280;42964;42.910;23.792;2024-03-02T02:36:04;97120.38;;;7.92;94.11
57086;BME280;42964;42.910;23.792;2024-03-02T02:41:03;97128.13;;;8.10;93.99
57086;BME280;42964;42.910;23.792;2024-03-02T02:46:02;97096.31;;;7.85;93.64
57086;BME280;42964;42.910;23.792;2024-03-02T02:51:01;97109.22;;;7.76;93.60
57086;BME280;42964;42.910;23.792;2024-03-02T02:56:00;97135.00;;;8.09;93.68
57086;BME280;42964;42.910;23.792;2024-03-02T03:01:00;97100.59;;;7.89;93.09
57086;BME280;42964;42.910;23.792;2024-03-02T03:05:59;97131.59;;;8.01;93.28
57086;BME280;42964;42.910;23.792;2024-03-02T03:10:58;97145.34;;;8.03;94.27
57086;BME280;42964;42.910;23.792;2024-03-02T03:15:57;97051.53;;;7.61;94.29
57086;BME280;42964;42.910;23.792;2024-03-02T03:20:56;97121.28;;;7.87;92.58
57086;BME280;42964;42.910;23.792;2024-03-02T03:25:55;97135.88;;;7.56;93.89
57086;BME280;42964;42.910;23.792;2024-03-02T03:30:54;97154.81;;;7.52;94.18
57086;BME280;42964;42.910;23.792;2024-03-02T03:35:53;97155.66;;;7.45;95.03
57086;BME280;42964;42.910;23.792;2024-03-02T03:40:52;97149.66;;;7.43;94.75
57086;BME280;42964;42.910;23.792;2024-03-02T03:45:51;97136.66;;;7.24;95.25
57086;BME280;42964;42.910;23.792;2024-03-02T03:50:50;97147.78;;;6.99;95.40
57086;BME280;42964;42.910;23.792;2024-03-02T03:55:49;97096.13;;;6.77;95.65
57086;BME280;42964;42.910;23.792;2024-03-02T04:00:48;97142.59;;;6.96;96.06
57086;BME280;42964;42.910;23.792;2024-03-02T04:05:47;97156.44;;;7.15;96.03
57086;BME280;42964;42.910;23.792;2024-03-02T04:10:46;97177.91;;;7.06;96.80
57086;BME280;42964;42.910;23.792;2024-03-02T04:15:45;97147.75;;;6.87;96.64
57086;BME280;42964;42.910;23.792;2024-03-02T04:20:44;97082.06;;;6.14;98.12
57086;BME280;42964;42.910;23.792;2024-03-02T04:25:43;97134.72;;;6.54;98.62
57086;BME280;42964;42.910;23.792;2024-03-02T04:30:42;97126.03;;;6.42;98.28
57086;BME280;42964;42.910;23.792;2024-03-02T04:35:41;97077.72;;;6.04;99.03
57086;BME280;42964;42.910;23.792;2024-03-02T04:40:40;97163.13;;;6.67;99.22
57086;BME280;42964;42.910;23.792;2024-03-02T04:45:38;97161.38;;;6.67;98.71
57086;BME280;42964;42.910;23.792;2024-03-02T04:50:37;97156.31;;;6.81;99.31
57086;BME280;42964;42.910;23.792;2024-03-02T04:55:36;97155.41;;;6.74;99.56
57086;BME280;42964;42.910;23.792;2024-03-02T05:00:38;97153.75;;;6.82;99.21
57086;BME280;42964;42.910;23.792;2024-03-02T05:05:37;97169.31;;;7.10;99.66
57086;BME280;42964;42.910;23.792;2024-03-02T05:10:37;97185.69;;;7.26;99.15
57086;BME280;42964;42.910;23.792;2024-03-02T05:15:36;97178.84;;;7.36;99.21
57086;BME280;42964;42.910;23.792;2024-03-02T05:20:35;97161.63;;;7.19;99.03
57086;BME280;42964;42.910;23.792;2024-03-02T05:25:34;97164.22;;;7.32;99.37
57086;BME280;42964;42.910;23.792;2024-03-02T05:30:34;97190.09;;;7.50;99.37
57086;BME280;42964;42.910;23.792;2024-03-02T05:35:33;97194.41;;;7.60;99.30
57086;BME280;42964;42.910;23.792;2024-03-02T05:40:32;97178.03;;;7.41;98.62
57086;BME280;42964;42.910;23.792;2024-03-02T05:45:31;97180.59;;;7.44;98.86
57086;BME280;42964;42.910;23.792;2024-03-02T05:50:30;97211.66;;;7.64;99.62
57086;BME280;42964;42.910;23.792;2024-03-02T05:55:28;97190.13;;;7.69;99.49
57086;BME280;42964;42.910;23.792;2024-03-02T06:00:27;97217.69;;;7.94;99.85
57086;BME280;42964;42.910;23.792;2024-03-02T06:05:26;97223.75;;;7.90;98.45
57086;BME280;42964;42.910;23.792;2024-03-02T06:10:25;97207.34;;;7.82;98.70
57086;BME280;42964;42.910;23.792;2024-03-02T06:15:24;97216.00;;;7.90;98.92
57086;BME280;42964;42.910;23.792;2024-03-02T06:20:23;97221.16;;;7.90;98.47
57086;BME280;42964;42.910;23.792;2024-03-02T06:25:22;97233.22;;;7.97;98.36
57086;BME280;42964;42.910;23.792;2024-03-02T06:30:21;97235.81;;;8.06;98.28
57086;BME280;42964;42.910;23.792;2024-03-02T06:35:20;97224.59;;;8.07;98.36
57086;BME280;42964;42.910;23.792;2024-03-02T06:40:19;97229.78;;;8.01;98.09
57086;BME280;42964;42.910;23.792;2024-03-02T06:45:18;97240.09;;;7.95;94.75
57086;BME280;42964;42.910;23.792;2024-03-02T06:50:17;97254.72;;;7.81;96.83
57086;BME280;42964;42.910;23.792;2024-03-02T06:55:16;97255.56;;;7.77;97.99
57086;BME280;42964;42.910;23.792;2024-03-02T07:00:16;97262.47;;;7.87;98.08
57086;BME280;42964;42.910;23.792;2024-03-02T07:05:16;97255.59;;;7.98;98.63
57086;BME280;42964;42.910;23.792;2024-03-02T07:10:15;97214.22;;;7.80;97.50
57086;BME280;42964;42.910;23.792;2024-03-02T07:15:14;97257.31;;;8.15;98.08
57086;BME280;42964;42.910;23.792;2024-03-02T07:20:31;97237.53;;;8.21;98.33
57086;BME280;42964;42.910;23.792;2024-03-02T07:25:30;97161.72;;;7.88;98.43
57086;BME280;42964;42.910;23.792;2024-03-02T07:30:29;97176.34;;;8.09;98.47
57086;BME280;42964;42.910;23.792;2024-03-02T07:35:28;97259.06;;;8.60;98.32
57086;BME280;42964;42.910;23.792;2024-03-02T07:40:30;97135.88;;;7.98;96.58
57086;BME280;42964;42.910;23.792;2024-03-02T07:45:29;97265.09;;;8.65;96.47
57086;BME280;42964;42.910;23.792;2024-03-02T07:50:27;97264.22;;;8.39;94.25
57086;BME280;42964;42.910;23.792;2024-03-02T07:55:26;97235.78;;;7.99;94.03
57086;BME280;42964;42.910;23.792;2024-03-02T08:00:26;97295.25;;;8.31;95.80
57086;BME280;42964;42.910;23.792;2024-03-02T08:05:26;97191.84;;;8.03;95.20
57086;BME280;42964;42.910;23.792;2024-03-02T08:10:26;97276.28;;;8.72;95.42
57086;BME280;42964;42.910;23.792;2024-03-02T08:15:24;97221.06;;;8.71;96.25
57086;BME280;42964;42.910;23.792;2024-03-02T08:20:23;97277.88;;;9.27;94.90
57086;BME280;42964;42.910;23.792;2024-03-02T08:25:22;97280.47;;;9.21;92.84
57086;BME280;42964;42.910;23.792;2024-03-02T08:30:21;97284.78;;;9.29;92.49
57086;BME280;42964;42.910;23.792;2024-03-02T08:35:21;97257.22;;;9.16;91.69
57086;BME280;42964;42.910;23.792;2024-03-02T08:40:21;97270.94;;;9.37;92.39
57086;BME280;42964;42.910;23.792;2024-03-02T08:45:20;97272.72;;;9.18;91.55
57086;BME280;42964;42.910;23.792;2024-03-02T08:50:19;97250.16;;;9.50;90.03
57086;BME280;42964;42.910;23.792;2024-03-02T08:55:18;97270.69;;;9.92;90.10
57086;BME280;42964;42.910;23.792;2024-03-02T09:00:17;97274.81;;;10.22;90.17
57086;BME280;42964;42.910;23.792;2024-03-02T09:05:16;97266.91;;;10.33;86.25
57086;BME280;42964;42.910;23.792;2024-03-02T09:10:15;97272.44;;;9.87;86.22
57086;BME280;42964;42.910;23.792;2024-03-02T09:15:15;97255.94;;;9.97;86.93
57086;BME280;42964;42.910;23.792;2024-03-02T09:20:14;97276.47;;;10.29;86.79
57086;BME280;42964;42.910;23.792;2024-03-02T09:25:13;97288.63;;;10.24;84.78
57086;BME280;42964;42.910;23.792;2024-03-02T09:30:13;97237.72;;;10.12;84.33
57086;BME280;42964;42.910;23.792;2024-03-02T09:35:12;97262.63;;;10.30;84.69
57086;BME280;42964;42.910;23.792;2024-03-02T09:40:11;97294.63;;;10.31;82.77
57086;BME280;42964;42.910;23.792;2024-03-02T09:45:11;97243.66;;;10.25;84.75
57086;BME280;42964;42.910;23.792;2024-03-02T09:50:10;97282.28;;;10.59;82.98
57086;BME280;42964;42.910;23.792;2024-03-02T09:55:11;97259.88;;;10.49;83.26
57086;BME280;42964;42.910;23.792;2024-03-02T10:00:11;97195.63;;;9.78;82.12
57086;BME280;42964;42.910;23.792;2024-03-02T10:05:25;97084.72;;;9.00;81.55
57086;BME280;42964;42.910;23.792;2024-03-02T10:10:35;97286.06;;;10.16;83.49
57086;BME280;42964;42.910;23.792;2024-03-02T10:15:35;97289.84;;;9.63;83.53
57086;BME280;42964;42.910;23.792;2024-03-02T10:20:36;97205.38;;;9.31;83.66
57086;BME280;42964;42.910;23.792;2024-03-02T10:25:34;97278.44;;;9.98;85.89
57086;BME280;42964;42.910;23.792;2024-03-02T10:30:34;97283.44;;;10.21;86.62
57086;BME280;42964;42.910;23.792;2024-03-02T10:35:33;97211.94;;;9.88;84.74
57086;BME280;42964;42.910;23.792;2024-03-02T10:40:36;97246.47;;;9.93;82.63
57086;BME280;42964;42.910;23.792;2024-03-02T10:45:35;97268.97;;;9.88;84.92
57086;BME280;42964;42.910;23.792;2024-03-02T10:50:34;97273.94;;;10.18;84.14
57086;BME280;42964;42.910;23.792;2024-03-02T10:55:33;97148.38;;;9.41;83.36
57086;BME280;42964;42.910;23.792;2024-03-02T11:00:34;97248.28;;;9.82;84.82
57086;BME280;42964;42.910;23.792;2024-03-02T11:05:39;97278.38;;;10.06;86.55
57086;BME280;42964;42.910;23.792;2024-03-02T11:10:50;97266.19;;;10.14;86.67
57086;BME280;42964;42.910;23.792;2024-03-02T11:15:54;97246.69;;;9.57;81.09
57086;BME280;42964;42.910;23.792;2024-03-02T11:20:54;97204.53;;;9.20;83.13
57086;BME280;42964;42.910;23.792;2024-03-02T11:25:53;97265.69;;;9.55;84.22
57086;BME280;42964;42.910;23.792;2024-03-02T11:30:52;97245.94;;;9.25;84.29
57086;BME280;42964;42.910;23.792;2024-03-02T11:35:51;97270.09;;;9.42;85.81
57086;BME280;42964;42.910;23.792;2024-03-02T11:40:50;97226.16;;;9.16;85.98
57086;BME280;42964;42.910;23.792;2024-03-02T11:45:52;97267.50;;;9.41;87.11
57086;BME280;42964;42.910;23.792;2024-03-02T11:50:58;97263.16;;;9.47;85.92
57086;BME280;42964;42.910;23.792;2024-03-02T11:55:58;97258.03;;;9.26;87.10
57086;BME280;42964;42.910;23.792;2024-03-02T12:00:57;97248.59;;;9.08;87.44
57086;BME280;42964;42.910;23.792;2024-03-02T12:05:56;97225.41;;;8.72;88.44
57086;BME280;42964;42.910;23.792;2024-03-02T12:10:59;97265.06;;;8.84;89.18
57086;BME280;42964;42.910;23.792;2024-03-02T12:16:01;97237.44;;;8.78;89.38
57086;BME280;42964;42.910;23.792;2024-03-02T12:21:01;97249.53;;;8.68;90.14
57086;BME280;42964;42.910;23.792;2024-03-02T12:26:01;97272.84;;;8.67;91.01
57086;BME280;42964;42.910;23.792;2024-03-02T12:31:00;97206.47;;;8.38;91.18
57086;BME280;42964;42.910;23.792;2024-03-02T12:36:00;97271.94;;;8.86;92.73
57086;BME280;42964;42.910;23.792;2024-03-02T12:40:58;97264.13;;;9.09;93.21
57086;BME280;42964;42.910;23.792;2024-03-02T12:45:58;97225.34;;;8.88;92.69
57086;BME280;42964;42.910;23.792;2024-03-02T12:50:57;97215.06;;;8.69;92.35
57086;BME280;42964;42.910;23.792;2024-03-02T12:55:56;97277.97;;;8.90;92.09
57086;BME280;42964;42.910;23.792;2024-03-02T13:01:08;97279.69;;;9.00;91.59
57086;BME280;42964;42.910;23.792;2024-03-02T13:06:10;97274.53;;;8.71;91.75
57086;BME280;42964;42.910;23.792;2024-03-02T13:11:09;97243.53;;;8.74;91.90
57086;BME280;42964;42.910;23.792;2024-03-02T13:16:09;97285.69;;;9.04;91.53
57086;BME280;42964;42.910;23.792;2024-03-02T13:21:09;97246.91;;;8.98;90.89
57086;BME280;42964;42.910;23.792;2024-03-02T13:26:08;97274.44;;;9.29;90.68
57086;BME280;42964;42.910;23.792;2024-03-02T13:31:09;97258.03;;;9.18;88.44
57086;BME280;42964;42.910;23.792;2024-03-02T13:36:08;97289.06;;;9.43;88.56
57086;BME280;42964;42.910;23.792;2024-03-02T13:41:07;97284.72;;;9.54;89.18
57086;BME280;42964;42.910;23.792;2024-03-02T13:46:06;97245.06;;;9.33;87.09
57086;BME280;42964;42.910;23.792;2024-03-02T13:51:05;97301.00;;;9.77;88.03
57086;BME280;42964;42.910;23.792;2024-03-02T13:56:04;97237.34;;;9.13;86.90
57086;BME280;42964;42.910;23.792;2024-03-02T14:01:05;97299.41;;;9.41;87.59
57086;BME280;42964;42.910;23.792;2024-03-02T14:06:04;97306.31;;;9.44;87.74
57086;BME280;42964;42.910;23.792;2024-03-02T14:11:03;97301.09;;;9.56;87.77
57086;BME280;42964;42.910;23.792;2024-03-02T14:16:02;97298.56;;;9.41;86.71
57086;BME280;42964;42.910;23.792;2024-03-02T14:21:01;97310.59;;;9.54;87.10
57086;BME280;42964;42.910;23.792;2024-03-02T14:26:00;97311.53;;;9.42;87.40
57086;BME280;42964;42.910;23.792;2024-03-02T14:30:59;97307.22;;;9.32;87.61
57086;BME280;42964;42.910;23.792;2024-03-02T14:35:59;97317.56;;;9.40;87.18
57086;BME280;42964;42.910;23.792;2024-03-02T14:40:58;97312.38;;;9.23;86.29
57086;BME280;42964;42.910;23.792;2024-03-02T14:45:58;97170.34;;;8.14;86.72
57086;BME280;42964;42.910;23.792;2024-03-02T14:50:57;97287.47;;;8.77;87.01
57086;BME280;42964;42.910;23.792;2024-03-02T14:55:56;97323.66;;;9.03;87.23
57086;BME280;42964;42.910;23.792;2024-03-02T15:00:56;97327.97;;;9.01;87.66
57086;BME280;42964;42.910;23.792;2024-03-02T15:05:56;97311.59;;;8.90;88.47
57086;BME280;42964;42.910;23.792;2024-03-02T15:10:55;97279.72;;;8.57;87.37
57086;BME280;42964;42.910;23.792;2024-03-02T15:15:54;97347.84;;;8.93;87.68
57086;BME280;42964;42.910;23.792;2024-03-02T15:20:53;97301.25;;;8.82;88.49
57086;BME280;42964;42.910;23.792;2024-03-02T15:25:53;97337.47;;;8.94;87.22
57086;BME280;42964;42.910;23.792;2024-03-02T15:30:52;97340.94;;;8.95;87.55
57086;BME280;42964;42.910;23.792;2024-03-02T15:35:51;97317.66;;;8.78;87.08
57086;BME280;42964;42.910;23.792;2024-03-02T15:40:50;97305.59;;;8.68;87.17
57086;BME280;42964;42.910;23.792;2024-03-02T15:45:49;97268.53;;;8.44;87.57
57086;BME280;42964;42.910;23.792;2024-03-02T15:50:48;97282.34;;;8.51;87.61
57086;BME280;42964;42.910;23.792;2024-03-02T15:55:48;97353.00;;;8.98;88.19
57086;BME280;42964;42.910;23.792;2024-03-02T16:00:47;97356.44;;;9.04;88.80
57086;BME280;42964;42.910;23.792;2024-03-02T16:05:46;97338.34;;;8.97;88.91
57086;BME280;42964;42.910;23.792;2024-03-02T16:10:45;97306.44;;;8.71;89.16
57086;BME280;42964;42.910;23.792;2024-03-02T16:15:44;97361.59;;;9.13;89.99
57086;BME280;42964;42.910;23.792;2024-03-02T16:20:43;97351.28;;;9.07;89.88
57086;BME280;42964;42.910;23.792;2024-03-02T16:25:42;97361.59;;;9.13;90.17
57086;BME280;42964;42.910;23.792;2024-03-02T16:30:41;97365.06;;;9.12;90.00
57086;BME280;42964;42.910;23.792;2024-03-02T16:35:40;97375.41;;;9.19;90.61
57086;BME280;42964;42.910;23.792;2024-03-02T16:40:40;97303.03;;;8.74;90.29
57086;BME280;42964;42.910;23.792;2024-03-02T16:45:39;97348.66;;;9.04;90.39
57086;BME280;42964;42.910;23.792;2024-03-02T16:50:38;97370.22;;;9.06;91.04
57086;BME280;42964;42.910;23.792;2024-03-02T16:55:37;97383.19;;;9.12;90.63
57086;BME280;42964;42.910;23.792;2024-03-02T17:00:36;97373.69;;;9.01;90.18
57086;BME280;42964;42.910;23.792;2024-03-02T17:05:36;97403.00;;;9.04;90.27
57086;BME280;42964;42.910;23.792;2024-03-02T17:10:35;97188.41;;;7.74;89.94
57086;BME280;42964;42.910;23.792;2024-03-02T17:15:34;97404.75;;;8.90;90.70
57086;BME280;42964;42.910;23.792;2024-03-02T17:20:33;97377.16;;;8.75;90.45
57086;BME280;42964;42.910;23.792;2024-03-02T17:25:32;97373.72;;;8.70;90.61
57086;BME280;42964;42.910;23.792;2024-03-02T17:30:31;97415.97;;;9.01;91.38
57086;BME280;42964;42.910;23.792;2024-03-02T17:35:30;97415.09;;;9.05;91.41
57086;BME280;42964;42.910;23.792;2024-03-02T17:40:30;97378.03;;;8.86;90.74
57086;BME280;42964;42.910;23.792;2024-03-02T17:45:30;97388.38;;;8.86;91.54
57086;BME280;42964;42.910;23.792;2024-03-02T17:50:29;97418.56;;;9.06;91.13
57086;BME280;42964;42.910;23.792;2024-03-02T17:55:28;97416.84;;;9.08;90.71
57086;BME280;42964;42.910;23.792;2024-03-02T18:00:27;97426.34;;;9.03;90.44
57086;BME280;42964;42.910;23.792;2024-03-02T18:05:26;97371.13;;;8.70;91.22
57086;BME280;42964;42.910;23.792;2024-03-02T18:10:25;97404.75;;;8.90;91.34
57086;BME280;42964;42.910;23.792;2024-03-02T18:15:27;97417.69;;;8.96;90.97
57086;BME280;42964;42.910;23.792;2024-03-02T18:20:26;97359.91;;;8.54;90.02
57086;BME280;42964;42.910;23.792;2024-03-02T18:25:25;97395.25;;;8.69;90.92
57086;BME280;42964;42.910;23.792;2024-03-02T18:30:24;97360.78;;;8.53;90.51
57086;BME280;42964;42.910;23.792;2024-03-02T18:35:23;97391.81;;;8.76;90.93
57086;BME280;42964;42.910;23.792;2024-03-02T18:40:22;97407.34;;;8.94;91.20
57086;BME280;42964;42.910;23.792;2024-03-02T18:45:20;97381.47;;;8.81;91.11
57086;BME280;42964;42.910;23.792;2024-03-02T18:50:20;97423.75;;;9.03;91.88
57086;BME280;42964;42.910;23.792;2024-03-02T18:55:18;97413.38;;;8.97;91.17
57086;BME280;42964;42.910;23.792;2024-03-02T19:00:18;97404.78;;;8.84;90.79
57086;BME280;42964;42.910;23.792;2024-03-02T19:05:17;97418.56;;;8.80;90.86
57086;BME280;42964;42.910;23.792;2024-03-02T19:10:16;97419.41;;;8.65;90.91
57086;BME280;42964;42.910;23.792;2024-03-02T19:15:15;97361.59;;;8.18;90.96
57086;BME280;42964;42.910;23.792;2024-03-02T19:20:14;97438.38;;;8.58;91.03
57086;BME280;42964;42.910;23.792;2024-03-02T19:25:14;97446.97;;;8.50;91.29
57086;BME280;42964;42.910;23.792;2024-03-02T19:30:13;97432.25;;;8.23;91.54
57086;BME280;42964;42.910;23.792;2024-03-02T19:35:12;97432.25;;;8.28;91.42
57086;BME280;42964;42.910;23.792;2024-03-02T19:40:11;97440.00;;;8.22;91.39
57086;BME280;42964;42.910;23.792;2024-03-02T19:45:10;97169.94;;;6.60;91.84
57086;BME280;42964;42.910;23.792;2024-03-02T19:50:09;97381.31;;;7.93;92.02
57086;BME280;42964;42.910;23.792;2024-03-02T19:55:12;97458.16;;;8.40;91.78
57086;BME280;42964;42.910;23.792;2024-03-02T20:00:15;97411.56;;;8.20;91.75
57086;BME280;42964;42.910;23.792;2024-03-02T20:05:15;97417.59;;;8.25;91.56
57086;BME280;42964;42.910;23.792;2024-03-02T20:10:14;97125.25;;;6.55;91.25
57086;BME280;42964;42.910;23.792;2024-03-02T20:15:13;97454.75;;;8.61;91.40
57086;BME280;42964;42.910;23.792;2024-03-02T20:20:13;97432.34;;;8.56;91.65
57086;BME280;42964;42.910;23.792;2024-03-02T20:25:12;97445.25;;;8.66;91.04
57086;BME280;42964;42.910;23.792;2024-03-02T20:30:12;97456.50;;;8.70;91.17
57086;BME280;42964;42.910;23.792;2024-03-02T20:35:10;97272.75;;;7.62;91.26
57086;BME280;42964;42.910;23.792;2024-03-02T20:40:10;97459.09;;;8.70;91.07
57086;BME280;42964;42.910;23.792;2024-03-02T20:45:09;97434.91;;;8.52;91.03
57086;BME280;42964;42.910;23.792;2024-03-02T20:50:08;97429.75;;;8.56;91.17
57086;BME280;42964;42.910;23.792;2024-03-02T20:55:08;97443.53;;;8.61;91.00
57086;BME280;42964;42.910;23.792;2024-03-02T21:00:09;97444.41;;;8.63;91.25
57086;BME280;42964;42.910;23.792;2024-03-02T21:05:08;97459.09;;;8.79;90.99
57086;BME280;42964;42.910;23.792;2024-03-02T21:10:08;97376.25;;;8.33;90.92
57086;BME280;42964;42.910;23.792;2024-03-02T21:15:09;97434.91;;;8.62;90.81
57086;BME280;42964;42.910;23.792;2024-03-02T21:20:09;97431.47;;;8.63;91.09
57086;BME280;42964;42.910;23.792;2024-03-02T21:25:08;97415.94;;;8.60;91.06
57086;BME280;42964;42.910;23.792;2024-03-02T21:30:11;97371.94;;;8.27;90.62
57086;BME280;42964;42.910;23.792;2024-03-02T21:35:10;97420.28;;;8.58;91.12
57086;BME280;42964;42.910;23.792;2024-03-02T21:40:10;97433.22;;;8.65;91.00
57086;BME280;42964;42.910;23.792;2024-03-02T21:45:10;97383.16;;;8.36;91.27
57086;BME280;42964;42.910;23.792;2024-03-02T21:50:09;97433.16;;;8.45;91.29
57086;BME280;42964;42.910;23.792;2024-03-02T21:55:09;97416.72;;;8.22;91.42
57086;BME280;42964;42.910;23.792;2024-03-02T22:00:08;97405.47;;;8.06;92.14
57086;BME280;42964;42.910;23.792;2024-03-02T22:05:07;97460.59;;;8.03;93.16
57086;BME280;42964;42.910;23.792;2024-03-02T22:10:06;97439.91;;;8.00;93.24
57086;BME280;42964;42.910;23.792;2024-03-02T22:15:05;97444.22;;;7.97;93.93
57086;BME280;42964;42.910;23.792;2024-03-02T22:20:05;97396.75;;;7.75;93.74
57086;BME280;42964;42.910;23.792;2024-03-02T22:25:04;97432.09;;;7.90;93.98
57086;BME280;42964;42.910;23.792;2024-03-02T22:30:04;97433.88;;;7.95;93.63
57086;BME280;42964;42.910;23.792;2024-03-02T22:35:04;97389.84;;;7.68;94.20
57086;BME280;42964;42.910;23.792;2024-03-02T22:40:03;97395.94;;;7.83;93.87
57086;BME280;42964;42.910;23.792;2024-03-02T22:45:05;97331.22;;;7.51;93.56
57086;BME280;42964;42.910;23.792;2024-03-02T22:50:05;97402.00;;;7.90;93.45
57086;BME280;42964;42.910;23.792;2024-03-02T22:55:04;97426.16;;;8.11;93.61
57086;BME280;42964;42.910;23.792;2024-03-02T23:00:04;97440.84;;;8.16;93.37
57086;BME280;42964;42.910;23.792;2024-03-02T23:05:18;97171.50;;;6.32;93.38
57086;BME280;42964;42.910;23.792;2024-03-02T23:10:17;97395.94;;;7.83;94.29
57086;BME280;42964;42.910;23.792;2024-03-02T23:15:18;97408.03;;;7.95;94.02
57086;BME280;42964;42.910;23.792;2024-03-02T23:20:17;97421.00;;;8.01;93.96
57086;BME280;42964;42.910;23.792;2024-03-02T23:25:16;97419.28;;;8.09;93.92
57086;BME280;42964;42.910;23.792;2024-03-02T23:30:15;97429.69;;;8.31;93.95
57086;BME280;42964;42.910;23.792;2024-03-02T23:35:17;97430.56;;;8.39;93.45
57086;BME280;42964;42.910;23.792;2024-03-02T23:40:17;97404.69;;;8.25;93.15
57086;BME280;42964;42.910;23.792;2024-03-02T23:45:15;97428.84;;;8.40;92.84
57086;BME280;42964;42.910;23.792;2024-03-02T23:50:14;97372.75;;;8.09;92.81
57086;BME280;42964;42.910;23.792;2024-03-02T23:55:13;97229.53;;;7.14;92.72
